Utah County RPA :: 8IDAHOFALLS

liberation: 2020-10-23  08:45     latitude: 43.441800     longitude: -112.113850 81 birds
# LOFT PRING MILES ARRIVAL SPEED ToWin
1 Riley Allred AU20-UCA-106 231.209 2020-10-23 13:28:09.338 1437.117 00:00:00
2 Riley Allred AU20-UCA-157 231.209 2020-10-23 13:28:18.348 1436.355 00:00:09
3 Riley Allred AU20-UCA-127 231.209 2020-10-23 13:28:22.828 1435.977 00:00:13
4 Craig Allred AU20-UVI-303 231.209 2020-10-23 13:28:29.525 1435.412 00:00:20
5 Cole Allred AU20-NLI-2015 231.209 2020-10-23 13:28:35.497 1434.908 00:00:26
6 Peery Loft AU20-UCA-0033 235.246 2020-10-23 13:34:06.993 1432.063 00:01:01
7 Peery Loft AU20-UCA-0025 235.246 2020-10-23 13:35:51.443 1423.492 00:02:45
8 Riley Allred AU20-UCA-101 231.209 2020-10-23 13:34:22.606 1406.221 00:06:13
9 Craig Allred AU20-UVI-361 231.209 2020-10-23 13:34:32.734 1405.402 00:06:23
10 Riley Allred AU20-UCA-169 231.209 2020-10-23 13:35:41.662 1399.848 00:07:32
11 Riley Allred AU20-UCA-119 231.209 2020-10-23 13:35:58.831 1398.471 00:07:49
12 Riley Allred AU20-UCA-153 231.209 2020-10-23 13:35:59.473 1398.420 00:07:50
13 Cole Allred IF20-VDB-31 231.209 2020-10-23 13:35:59.880 1398.387 00:07:51
14 Cole Allred AU20-NLI-2008 231.209 2020-10-23 13:36:01.868 1398.228 00:07:53
15 Cole Allred IF20-VDB-0060 231.209 2020-10-23 13:36:45.610 1394.734 00:08:36
16 Craig Allred AU20-UVI-352 231.209 2020-10-23 13:36:48.272 1394.522 00:08:39
17 Cole Allred AU20-NLI-2004 231.209 2020-10-23 13:36:51.797 1394.241 00:08:42
18 Riley Allred AU20-UCA-102 231.209 2020-10-23 13:37:02.935 1393.355 00:08:54
19 Riley Allred AU20-UCA-116 231.209 2020-10-23 13:37:18.530 1392.116 00:09:09
20 Cole Allred AU20-HARM-2617 231.209 2020-10-23 13:37:33.940 1390.894 00:09:25
21 Riley Allred AU20-UCA-136 231.209 2020-10-23 13:37:44.688 1390.043 00:09:35
22 Dry Creek Lofts AU20-NEB0-334 237.223 2020-10-23 13:46:22.759 1385.340 00:10:51
23 Iron Will AU20-UCA-0250 234.865 2020-10-23 13:43:36.020 1384.336 00:10:58
24 Riley Allred AU20-UCA-170 231.209 2020-10-23 13:39:56.700 1379.674 00:11:47
25 Riley Allred AU20-UCA-151 231.209 2020-10-23 13:40:37.868 1376.471 00:12:29
26 Cole Allred IF20-VDB-0055 231.209 2020-10-23 13:40:40.462 1376.270 00:12:31
27 Dry Creek Lofts AU20-NEBO-357 237.223 2020-10-23 13:49:06.654 1372.897 00:13:35
28 Dry Creek Lofts AU20-NEBO-356 237.223 2020-10-23 13:49:10.432 1372.613 00:13:39
29 Peery Loft AU20-UCA-0019 235.246 2020-10-23 13:47:07.017 1370.440 00:14:01
30 Peery Loft AU20-UCA-0038 235.246 2020-10-23 13:47:11.079 1370.133 00:14:05
31 Dry Creek Lofts AU20-NEBO-340 237.223 2020-10-23 13:50:50.461 1365.130 00:15:19
32 Dry Creek Lofts AU20-UCA-358 237.223 2020-10-23 13:51:33.957 1361.902 00:16:03
33 Riley Allred AU20-UCA-107 231.209 2020-10-23 13:44:31.741 1358.559 00:16:22
34 Cole Allred AU20-NLI-2419 231.209 2020-10-23 13:44:32.594 1358.494 00:16:23
35 Peery Loft AU20-UCA-0042 235.246 2020-10-23 13:50:04.322 1357.165 00:16:58
36 Riley Allred AU20-UCA-144 231.209 2020-10-23 13:45:19.046 1354.992 00:17:10
37 Cole Allred AU20-NLI-2417 231.209 2020-10-23 13:46:57.318 1347.643 00:18:48
38 Riley Allred AU20-UCA-147 231.209 2020-10-23 13:48:54.378 1338.991 00:20:45
39 Iron Will AU20-UCA-0261 234.865 2020-10-23 13:56:05.525 1328.749 00:23:28
40 Dry Creek Lofts AU-20-NEBO-323 237.223 2020-10-23 14:00:59.422 1321.284 00:25:28
41 Dry Creek Lofts AU20-NEBO-322 237.223 2020-10-23 14:00:59.959 1321.246 00:25:29
42 Riley Allred AU20-UCA-166 231.209 2020-10-23 13:53:02.174 1321.039 00:24:53
43 Peery Loft AU20-UCA-0003 235.246 2020-10-23 13:58:53.290 1319.047 00:25:47
44 Iron Will AU20-UCA-0266 234.865 2020-10-23 14:00:22.992 1310.670 00:27:45
45 Peery Loft AU20-UCA-0049 235.246 2020-10-23 14:03:35.559 1299.569 00:30:30
46 Peery Loft AU20-UCA-0034 235.246 2020-10-23 14:03:55.539 1298.212 00:30:50
47 Peery Loft AU20-UCA-0041 235.246 2020-10-23 14:05:10.439 1293.150 00:32:04
48 Dry Creek Lofts AU20-NEBO-328 237.223 2020-10-23 14:08:14.648 1291.633 00:32:43
49 Cole Allred AU20-NLI-2413 231.209 2020-10-23 14:00:24.974 1290.130 00:32:16
50 Dry Creek Lofts AU20-NEBO-360 237.223 2020-10-23 14:09:41.754 1285.858 00:34:10
51 Cole Allred AU20-HARM-1695 231.209 2020-10-23 14:04:52.411 1272.152 00:36:43
52 Cole Allred AU20-NLI-2503 231.209 2020-10-23 14:11:59.010 1244.490 00:43:50
53 Dry Creek Lofts AU20-NEBO-303 237.223 2020-10-23 14:32:06.681 1202.821 00:56:35
54 Dry Creek Lofts AU20-NEBO-315 237.223 2020-10-23 14:32:07.682 1202.763 00:56:36
55 Dry Creek Lofts AU20-NEBO-349 237.223 2020-10-23 14:39:51.629 1176.555 01:04:20
56 Dry Creek Lofts AU20-NEBO-329 237.223 2020-10-23 14:46:23.181 1155.309 01:10:52
57 Iron Will AU20-UCA-0262 234.865 2020-10-23 14:47:24.278 1140.612 01:14:46
58 Peery Loft AU20-UCA-0067 235.246 2020-10-23 14:50:50.778 1131.713 01:17:45
59 Cole Allred AU20-NLI-2121 231.209 2020-10-23 14:50:20.804 1113.813 01:22:11
60 Ross Johnson AU20-NEBO-45 229.719 2020-10-23 14:49:53.883 1107.994 01:23:34
61 Craig Allred AU20-UVI-366 231.209 2020-10-23 14:56:40.334 1094.857 01:28:31
62 Riley Allred AU20-UCA-161 231.209 2020-10-23 14:57:01.950 1093.796 01:28:53
63 Dry Creek Lofts AU20-NEBO-319 237.223 2020-10-23 15:11:11.146 1081.119 01:35:40
64 Dry Creek Lofts AU20-NEBO-361 237.223 2020-10-23 15:28:03.855 1035.847 01:52:33
65 Dry Creek Lofts AU20-NEBO-305 237.223 2020-10-23 15:28:43.457 1034.154 01:53:12
66 Cole Allred AU20-HARM-1689 231.209 2020-10-23 15:35:42.056 990.813 02:07:33
67 Ross Johnson AU20-NEBO-13 229.719 2020-10-23 15:45:34.978 961.296 02:19:15
68 Ross Johnson AU20-NEBO-20 229.719 2020-10-23 16:47:12.682 838.439 03:20:53
69 Dry Creek Lofts AU20-NEBO-327 237.223 2020-10-23 18:36:35.351 705.748 05:01:04
Cole Allred IF20-VDB-25 0 0000-00-00 00:00:00.000 0.000 00:00:00
Craig Allred AU20-UVI-339 0 0000-00-00 00:00:00.000 0.000 00:00:00
Craig Allred AU20-UVI-358 0 0000-00-00 00:00:00.000 0.000 00:00:00
Craig Allred AU20-UVI-359 0 0000-00-00 00:00:00.000 0.000 00:00:00
Dry Creek Lofts AU20-NEBO-301 0 0000-00-00 00:00:00.000 0.000 00:00:00
Dry Creek Lofts AU20-NEBO-311 0 0000-00-00 00:00:00.000 0.000 00:00:00
Iron Will AU20-UCA-0222 0 0000-00-00 00:00:00.000 0.000 00:00:00
Iron Will AU20-UCA-0265 0 0000-00-00 00:00:00.000 0.000 00:00:00
Iron Will AU20-UCA-0290 0 0000-00-00 00:00:00.000 0.000 00:00:00
Peery Loft AU20-UCA-0032 0 0000-00-00 00:00:00.000 0.000 00:00:00
Peery Loft AU20-UCA-0035 0 0000-00-00 00:00:00.000 0.000 00:00:00
Riley Allred AU20-UCA-156 0 0000-00-00 00:00:00.000 0.000 00:00:00